createdAt,value
2022-10-01T11:56:40.387Z,22432.00
2022-10-01T11:57:40.317Z,22560.00
2022-10-01T11:58:40.316Z,22240.00
2022-10-01T11:59:40.292Z,20896.00
2022-10-01T12:00:40.286Z,17984.00
2022-10-01T12:06:34.435Z,18048.00
2022-10-01T12:07:30.277Z,40000.00
2022-10-01T12:16:56.310Z,23584.00
2022-10-01T12:17:56.284Z,20384.00
2022-10-01T12:18:56.271Z,15176.00
2022-10-01T12:26:15.173Z,19424.00
2022-10-01T12:50:56.265Z,41184.00
2022-10-01T12:51:56.245Z,26592.00
2022-10-01T13:06:49.377Z,17280.00
2022-10-01T13:09:10.567Z,14488.00
2022-10-01T13:10:29.945Z,13692.00
2022-10-01T13:11:29.921Z,61472.00
2022-10-01T13:12:29.899Z,27392.00
2022-10-01T13:13:29.890Z,13308.00
2022-10-01T13:14:44.146Z,19712.00
2022-10-01T13:16:23.380Z,26976.00
2022-10-01T13:17:57.520Z,12396.00
2022-10-01T13:18:57.483Z,60928.00
2022-10-01T13:19:57.464Z,60320.00
2022-10-01T13:20:57.453Z,44800.00
2022-10-01T13:21:57.442Z,41184.00
2022-10-01T13:22:57.408Z,62880.00
2022-10-01T13:23:57.405Z,44896.00
2022-10-01T13:24:57.373Z,53280.00
2022-10-01T13:25:57.358Z,66176.00
2022-10-01T13:26:57.345Z,17664.00
2022-10-01T13:27:57.442Z,45408.00
2022-10-01T13:28:57.336Z,65472.00
2022-10-01T13:29:57.302Z,65344.00
2022-10-01T13:30:57.346Z,63456.00
2022-10-01T13:31:57.290Z,61056.00
2022-10-01T13:32:57.249Z,62912.00
2022-10-01T13:33:57.261Z,57536.00
2022-10-01T13:34:57.233Z,54624.00
2022-10-01T13:35:57.215Z,54304.00
2022-10-01T13:39:13.503Z,56896.00
2022-10-01T13:40:13.476Z,58656.00
2022-10-01T13:41:49.172Z,60800.00
2022-10-01T13:42:49.147Z,61696.00
2022-10-01T13:43:49.140Z,57984.00
2022-10-01T13:46:30.768Z,15876.00
2022-10-01T13:49:29.553Z,17120.00
2022-10-01T13:50:29.516Z,16416.00
2022-10-01T14:02:19.469Z,20576.00
2022-10-01T14:11:17.709Z,43392.00
2022-10-01T14:12:17.681Z,21120.00
2022-10-01T14:13:21.615Z,41728.00
2022-10-01T14:14:17.652Z,39360.00
2022-10-01T14:17:42.218Z,41088.00
2022-10-01T14:21:55.929Z,38912.00
2022-10-01T14:22:55.892Z,37696.00
2022-10-01T14:24:18.369Z,39776.00
2022-10-01T14:25:18.330Z,38816.00
2022-10-01T14:26:18.321Z,39552.00
2022-10-01T14:27:18.308Z,40352.00
2022-10-01T14:28:18.318Z,39392.00
2022-10-01T14:29:18.279Z,15728.00
2022-10-01T14:30:31.982Z,38464.00
2022-10-01T14:34:54.078Z,38176.00
2022-10-01T14:35:54.053Z,37952.00
2022-10-01T14:38:32.737Z,37216.00
2022-10-01T14:39:32.729Z,37696.00
2022-10-01T14:40:32.711Z,24864.00
2022-10-01T14:41:32.690Z,9872.00
2022-10-01T14:42:32.671Z,6724.00
2022-10-01T14:44:34.059Z,6900.00
